Time;durP1;ratioP1;P1;durP2;ratioP2;P2;SDS_P1;SDS_P2;PMS_P1;PMS_P2;Temp;Humidity;BMP_temperature;BMP_pressure;BME280_temperature;BME280_humidity;BME280_pressure;Samples;Min_cycle;Max_cycle;Signal;HPM_P1;HPM_P2
2023/02/21 02:14:37;;;;;;;;;;;18.10;62.90;;;;;;5043334;28;790;-72
2023/02/21 02:17:05;;;;;;;;;;;18.10;62.90;;;;;;5038371;28;1229;-72
2023/02/21 02:19:42;;;;;;;;;;;18.10;62.90;;;;;;5070157;28;1909;-71
2023/02/21 02:22:20;;;;;;;;;;;18.10;62.90;;;;;;5067394;28;1294;-71
2023/02/21 02:25:04;;;;;;;;;;;18.10;62.90;;;;;;5037246;28;927;-71
2023/02/21 02:27:40;;;;;;;;;;;18.10;62.90;;;;;;5038010;28;1036;-71
2023/02/21 02:30:10;;;;;;;;;;;18.10;62.90;;;;;;5037455;28;1258;-71
2023/02/21 02:32:35;;;;;;;;;;;18.10;63.00;;;;;;5041466;28;869;-71
2023/02/21 02:35:05;;;;;;;;;;;18.00;62.90;;;;;;5039166;28;1050;-71
2023/02/21 02:37:33;;;;;;;;;;;18.00;62.90;;;;;;5041975;28;1342;-71
2023/02/21 02:40:02;;;;;;;;;;;18.00;63.00;;;;;;5038401;28;1898;-71
2023/02/21 02:42:46;;;;;;;;;;;18.10;63.00;;;;;;5043225;28;904;-71
2023/02/21 02:45:24;;;;;;;;;;;18.00;63.00;;;;;;5073426;28;895;-70
2023/02/21 02:47:51;;;;;;;;;;;18.00;63.00;;;;;;5042507;28;910;-71
2023/02/21 02:50:17;;;;;;;;;;;18.00;63.00;;;;;;5071191;28;1228;-71
2023/02/21 02:52:52;;;;;;;;;;;18.00;63.00;;;;;;5040886;28;1337;-71
2023/02/21 02:55:37;;;;;;;;;;;18.00;63.00;;;;;;5073913;28;779;-72
2023/02/21 02:58:03;;;;;;;;;;;18.00;63.00;;;;;;5037601;28;1937;-71
2023/02/21 03:00:29;;;;;;;;;;;18.00;63.10;;;;;;5041256;28;1320;-72
2023/02/21 03:02:55;;;;;;;;;;;18.00;63.10;;;;;;5074073;28;1331;-71
2023/02/21 03:05:20;;;;;;;;;;;18.00;63.10;;;;;;5046294;28;1064;-71
2023/02/21 03:08:00;;;;;;;;;;;18.00;63.10;;;;;;5042307;28;892;-72
2023/02/21 03:10:38;;;;;;;;;;;18.00;63.10;;;;;;5044229;28;1315;-72
2023/02/21 03:13:09;;;;;;;;;;;18.00;63.10;;;;;;5038815;28;868;-72
2023/02/21 03:15:37;;;;;;;;;;;18.00;63.10;;;;;;5040040;28;914;-72
2023/02/21 03:18:04;;;;;;;;;;;18.00;63.20;;;;;;5074627;28;1957;-72
2023/02/21 03:20:30;;;;;;;;;;;17.90;63.10;;;;;;5074408;28;1355;-71
2023/02/21 03:22:56;;;;;;;;;;;18.00;63.10;;;;;;5070628;28;851;-73
2023/02/21 03:25:22;;;;;;;;;;;18.00;63.20;;;;;;5071064;28;815;-71
2023/02/21 03:27:47;;;;;;;;;;;17.90;63.10;;;;;;5069339;28;852;-71
2023/02/21 03:30:13;;;;;;;;;;;18.00;63.20;;;;;;5073682;28;1247;-71
2023/02/21 03:32:42;;;;;;;;;;;17.90;63.10;;;;;;5073139;28;867;-71
2023/02/21 03:35:08;;;;;;;;;;;17.90;63.10;;;;;;5057327;28;1294;-71
2023/02/21 03:37:36;;;;;;;;;;;17.90;63.10;;;;;;5074192;28;871;-72
2023/02/21 03:40:02;;;;;;;;;;;17.90;63.20;;;;;;5040732;28;1977;-71
2023/02/21 03:42:28;;;;;;;;;;;17.90;63.20;;;;;;5070697;28;876;-71
2023/02/21 03:44:53;;;;;;;;;;;17.90;63.20;;;;;;5037036;28;1061;-71
2023/02/21 03:47:19;;;;;;;;;;;17.90;63.20;;;;;;5041940;28;835;-73
2023/02/21 03:49:44;;;;;;;;;;;17.90;63.20;;;;;;5072904;28;921;-73
2023/02/21 03:52:11;;;;;;;;;;;17.90;63.20;;;;;;5035278;28;1340;-74
2023/02/21 03:54:37;;;;;;;;;;;17.90;63.30;;;;;;5070232;28;938;-72
2023/02/21 03:57:03;;;;;;;;;;;17.90;63.30;;;;;;5071104;28;792;-74
2023/02/21 03:59:28;;;;;;;;;;;17.90;63.20;;;;;;5071213;28;1972;-74
2023/02/21 04:01:53;;;;;;;;;;;17.90;63.30;;;;;;5041710;28;1355;-74
2023/02/21 04:04:19;;;;;;;;;;;17.90;63.30;;;;;;5042063;28;813;-73
2023/02/21 04:06:44;;;;;;;;;;;17.90;63.30;;;;;;5040350;28;989;-75
2023/02/21 04:09:10;;;;;;;;;;;17.90;63.40;;;;;;5040050;28;928;-74
2023/02/21 04:11:35;;;;;;;;;;;17.90;63.40;;;;;;5042629;28;1218;-73
2023/02/21 04:14:03;;;;;;;;;;;17.90;63.30;;;;;;5040174;28;883;-74
2023/02/21 04:16:28;;;;;;;;;;;17.90;63.30;;;;;;5042731;28;1484;-73
2023/02/21 04:18:54;;;;;;;;;;;17.90;63.40;;;;;;5075426;28;1937;-72
2023/02/21 04:21:19;;;;;;;;;;;17.90;63.30;;;;;;5042782;28;1497;-74
2023/02/21 04:23:45;;;;;;;;;;;17.90;63.40;;;;;;5044920;28;1553;-74
2023/02/21 04:26:10;;;;;;;;;;;17.90;63.40;;;;;;5042043;28;1564;-74
2023/02/21 04:28:36;;;;;;;;;;;17.90;63.40;;;;;;5044579;28;1185;-74
2023/02/21 04:31:01;;;;;;;;;;;17.90;63.60;;;;;;5042559;28;1378;-74
2023/02/21 04:33:27;;;;;;;;;;;18.00;63.50;;;;;;5029526;28;1235;-74
2023/02/21 04:35:53;;;;;;;;;;;18.00;63.50;;;;;;5075093;28;1418;-74
2023/02/21 04:38:18;;;;;;;;;;;18.00;63.60;;;;;;5043210;28;1971;-71
2023/02/21 04:40:44;;;;;;;;;;;18.10;63.60;;;;;;5041119;28;1396;-73
2023/02/21 04:43:09;;;;;;;;;;;18.10;63.70;;;;;;5043998;28;1341;-74
2023/02/21 04:45:34;;;;;;;;;;;18.10;63.80;;;;;;5069505;28;1279;-71
2023/02/21 04:48:00;;;;;;;;;;;18.10;63.90;;;;;;5070283;28;1363;-74
2023/02/21 04:50:27;;;;;;;;;;;18.10;63.80;;;;;;5044362;28;1476;-74
2023/02/21 04:52:53;;;;;;;;;;;18.10;64.00;;;;;;5042758;28;1429;-74
2023/02/21 04:55:18;;;;;;;;;;;18.10;63.90;;;;;;5043963;28;1483;-73
2023/02/21 04:57:43;;;;;;;;;;;18.10;64.10;;;;;;5046071;28;1307;-74
2023/02/21 05:00:09;;;;;;;;;;;18.10;64.10;;;;;;5041485;28;1918;-72
2023/02/21 05:02:35;;;;;;;;;;;18.20;64.20;;;;;;5072637;28;1350;-73
2023/02/21 05:05:00;;;;;;;;;;;18.20;64.30;;;;;;5042821;28;1521;-74
2023/02/21 05:07:26;;;;;;;;;;;18.10;64.30;;;;;;5039707;28;1470;-74
2023/02/21 05:09:51;;;;;;;;;;;18.20;64.60;;;;;;5042544;28;1002;-72
2023/02/21 05:12:18;;;;;;;;;;;18.20;64.70;;;;;;5038802;28;2126;-73
2023/02/21 05:14:43;;;;;;;;;;;18.30;64.60;;;;;;5040672;28;907;-74
2023/02/21 05:17:09;;;;;;;;;;;18.40;64.40;;;;;;5074488;28;1352;-74
2023/02/21 05:19:34;;;;;;;;;;;18.60;64.20;;;;;;5043754;28;1918;-73
2023/02/21 05:22:00;;;;;;;;;;;18.70;63.80;;;;;;5043716;28;1410;-75
2023/02/21 05:24:26;;;;;;;;;;;18.80;63.40;;;;;;5074349;28;890;-73
2023/02/21 05:26:52;;;;;;;;;;;18.90;63.00;;;;;;5039501;28;926;-73
2023/02/21 05:29:17;;;;;;;;;;;19.10;62.60;;;;;;5043284;28;890;-74
2023/02/21 05:31:43;;;;;;;;;;;19.30;63.00;;;;;;5066732;28;1263;-74
2023/02/21 05:34:08;;;;;;;;;;;19.40;61.80;;;;;;5070682;28;950;-74
2023/02/21 05:36:34;;;;;;;;;;;19.50;61.50;;;;;;5036646;28;1426;-74
2023/02/21 05:38:59;;;;;;;;;;;19.70;61.10;;;;;;5040810;28;1914;-74
2023/02/21 05:41:25;;;;;;;;;;;19.80;60.80;;;;;;5073112;28;1291;-74
2023/02/21 05:43:50;;;;;;;;;;;19.90;60.50;;;;;;5040963;28;958;-73
2023/02/21 05:46:17;;;;;;;;;;;19.90;60.30;;;;;;5038585;28;998;-73
2023/02/21 05:48:42;;;;;;;;;;;20.00;60.00;;;;;;5071320;28;871;-73
2023/02/21 05:51:08;;;;;;;;;;;20.10;59.80;;;;;;5070448;28;1288;-74
2023/02/21 05:53:33;;;;;;;;;;;20.20;59.70;;;;;;5038902;28;883;-74
2023/02/21 05:55:59;;;;;;;;;;;20.30;59.60;;;;;;5039224;28;964;-74
2023/02/21 05:58:24;;;;;;;;;;;20.40;59.50;;;;;;5043101;28;1957;-75
2023/02/21 06:00:50;;;;;;;;;;;20.40;59.30;;;;;;5040981;28;1351;-74
2023/02/21 06:03:15;;;;;;;;;;;20.50;59.20;;;;;;5039025;28;1007;-74
2023/02/21 06:05:41;;;;;;;;;;;20.60;59.10;;;;;;5040419;28;908;-75
2023/02/21 06:08:06;;;;;;;;;;;20.60;58.90;;;;;;5037391;28;876;-73
2023/02/21 06:10:32;;;;;;;;;;;20.70;58.90;;;;;;5039249;28;1272;-73
2023/02/21 06:12:57;;;;;;;;;;;20.70;58.80;;;;;;5040895;28;915;-75
2023/02/21 06:15:23;;;;;;;;;;;20.80;58.70;;;;;;5039944;28;906;-74
2023/02/21 06:17:48;;;;;;;;;;;20.80;58.60;;;;;;5038697;28;1356;-73
2023/02/21 06:20:15;;;;;;;;;;;20.80;58.60;;;;;;5042835;28;1975;-75
2023/02/21 06:22:41;;;;;;;;;;;20.90;58.60;;;;;;5037722;28;832;-70
2023/02/21 06:25:06;;;;;;;;;;;20.90;58.50;;;;;;5070889;28;2178;-73
2023/02/21 06:27:32;;;;;;;;;;;20.90;58.40;;;;;;5058064;28;1541;-74
2023/02/21 06:29:57;;;;;;;;;;;21.00;58.50;;;;;;5072895;28;1349;-74
2023/02/21 06:32:23;;;;;;;;;;;21.00;58.40;;;;;;5036390;28;1746;-70
2023/02/21 06:34:48;;;;;;;;;;;21.00;58.40;;;;;;5038268;28;1346;-70
2023/02/21 06:37:14;;;;;;;;;;;21.00;58.40;;;;;;5037703;28;1391;-69
2023/02/21 06:39:39;;;;;;;;;;;21.00;58.40;;;;;;5038730;28;1911;-71
2023/02/21 06:42:05;;;;;;;;;;;21.00;58.50;;;;;;5037960;28;1370;-70
2023/02/21 06:44:30;;;;;;;;;;;21.00;58.50;;;;;;5038506;28;1085;-69
2023/02/21 06:46:56;;;;;;;;;;;21.00;58.60;;;;;;5073011;28;907;-71
2023/02/21 06:49:21;;;;;;;;;;;21.00;58.60;;;;;;5039892;28;1010;-71
2023/02/21 06:51:47;;;;;;;;;;;21.00;58.80;;;;;;5038794;28;1271;-71
2023/02/21 06:54:12;;;;;;;;;;;21.00;58.90;;;;;;5039329;28;951;-70
2023/02/21 06:56:38;;;;;;;;;;;21.00;58.90;;;;;;5071794;28;862;-71
2023/02/21 06:59:04;;;;;;;;;;;20.90;59.00;;;;;;5041588;28;1906;-73
2023/02/21 07:01:29;;;;;;;;;;;20.90;59.30;;;;;;5073469;28;1267;-72
2023/02/21 07:03:55;;;;;;;;;;;20.90;59.30;;;;;;5069469;28;879;-71
2023/02/21 07:06:20;;;;;;;;;;;20.90;59.40;;;;;;5074854;28;882;-73
2023/02/21 07:08:46;;;;;;;;;;;20.80;59.40;;;;;;5041663;28;895;-72
2023/02/21 07:11:12;;;;;;;;;;;20.80;59.50;;;;;;5039579;28;1156;-72
2023/02/21 07:13:37;;;;;;;;;;;20.80;59.60;;;;;;5067915;28;882;-71
2023/02/21 07:16:03;;;;;;;;;;;20.80;59.60;;;;;;5068648;28;891;-70
2023/02/21 07:18:28;;;;;;;;;;;20.70;59.70;;;;;;5040113;28;1914;-70
2023/02/21 07:20:54;;;;;;;;;;;20.70;59.80;;;;;;5072890;28;1276;-71
2023/02/21 07:23:19;;;;;;;;;;;20.70;59.90;;;;;;5040548;28;924;-70
2023/02/21 07:25:45;;;;;;;;;;;20.70;60.00;;;;;;5071623;28;940;-69
2023/02/21 07:28:11;;;;;;;;;;;20.70;60.30;;;;;;5041085;28;901;-71
2023/02/21 07:30:36;;;;;;;;;;;20.60;60.40;;;;;;5067449;28;1247;-72
2023/02/21 07:33:01;;;;;;;;;;;20.60;60.50;;;;;;5038642;28;866;-73
2023/02/21 07:35:27;;;;;;;;;;;20.60;60.80;;;;;;5036686;28;928;-73
2023/02/21 07:37:52;;;;;;;;;;;20.60;60.90;;;;;;5043071;28;1375;-72
2023/02/21 07:40:18;;;;;;;;;;;20.60;60.90;;;;;;5072371;28;1969;-70
2023/02/21 07:42:43;;;;;;;;;;;20.50;60.90;;;;;;5035089;28;1644;-70
2023/02/21 07:45:10;;;;;;;;;;;20.50;61.00;;;;;;5071385;28;862;-67
2023/02/21 07:47:35;;;;;;;;;;;20.50;61.70;;;;;;5039683;28;840;-69
2023/02/21 07:50:00;;;;;;;;;;;20.40;61.40;;;;;;5039106;28;932;-69
2023/02/21 07:52:26;;;;;;;;;;;20.40;61.60;;;;;;5037440;28;1229;-68
2023/02/21 07:54:51;;;;;;;;;;;20.40;61.80;;;;;;5036848;28;844;-71
2023/02/21 07:57:17;;;;;;;;;;;20.40;61.80;;;;;;5038884;28;908;-68
2023/02/21 07:59:42;;;;;;;;;;;20.30;62.00;;;;;;5068848;28;1905;-68
2023/02/21 08:02:08;;;;;;;;;;;20.30;62.20;;;;;;5034082;28;1209;-68
2023/02/21 08:04:34;;;;;;;;;;;20.30;62.50;;;;;;5036787;28;862;-68
2023/02/21 08:06:59;;;;;;;;;;;20.30;62.70;;;;;;5037384;28;939;-68
2023/02/21 08:09:25;;;;;;;;;;;20.30;63.80;;;;;;5035745;28;859;-68
2023/02/21 08:11:50;;;;;;;;;;;20.30;64.00;;;;;;5037557;28;1244;-68
2023/02/21 08:14:16;;;;;;;;;;;20.30;63.90;;;;;;5037078;28;834;-68
2023/02/21 08:16:41;;;;;;;;;;;20.30;63.90;;;;;;5035511;28;876;-68
2023/02/21 08:19:08;;;;;;;;;;;20.30;64.00;;;;;;5038785;28;1991;-68
2023/02/21 08:21:34;;;;;;;;;;;20.30;63.80;;;;;;5038774;28;1210;-68
2023/02/21 08:23:59;;;;;;;;;;;20.20;63.60;;;;;;5068994;28;914;-68
2023/02/21 08:26:25;;;;;;;;;;;20.20;63.80;;;;;;5037651;28;1017;-68
2023/02/21 08:28:50;;;;;;;;;;;20.10;63.70;;;;;;5067546;28;869;-71
2023/02/21 08:31:15;;;;;;;;;;;20.10;63.90;;;;;;5035867;28;1354;-71
2023/02/21 08:33:41;;;;;;;;;;;20.00;63.90;;;;;;5038185;28;884;-70
2023/02/21 08:36:07;;;;;;;;;;;20.00;64.20;;;;;;5074542;28;1630;-71
2023/02/21 08:38:32;;;;;;;;;;;20.00;64.10;;;;;;5069370;28;1902;-71
2023/02/21 08:40:57;;;;;;;;;;;20.00;64.40;;;;;;5036152;28;1275;-71
2023/02/21 08:43:23;;;;;;;;;;;20.00;64.30;;;;;;5036035;28;1151;-70
2023/02/21 08:45:49;;;;;;;;;;;20.00;64.50;;;;;;5036157;28;915;-70
2023/02/21 08:48:14;;;;;;;;;;;20.00;64.50;;;;;;5038828;28;939;-70
2023/02/21 08:50:40;;;;;;;;;;;19.90;64.60;;;;;;5076279;28;1278;-70
2023/02/21 08:53:05;;;;;;;;;;;19.90;64.70;;;;;;5042979;28;856;-71
2023/02/21 08:55:31;;;;;;;;;;;19.90;64.90;;;;;;5040008;28;843;-70
2023/02/21 08:57:56;;;;;;;;;;;19.90;65.00;;;;;;5040162;28;1308;-70
2023/02/21 09:00:22;;;;;;;;;;;19.90;65.10;;;;;;5040480;28;1906;-69
2023/02/21 09:02:48;;;;;;;;;;;19.90;65.20;;;;;;5040489;28;875;-69
2023/02/21 09:05:15;;;;;;;;;;;19.80;65.40;;;;;;5038103;28;1074;-69
2023/02/21 09:07:41;;;;;;;;;;;19.80;65.50;;;;;;5072767;28;1232;-69
2023/02/21 09:10:08;;;;;;;;;;;19.80;65.60;;;;;;5042341;28;1247;-69
2023/02/21 09:12:34;;;;;;;;;;;19.80;65.80;;;;;;5042527;28;851;-69
2023/02/21 09:14:59;;;;;;;;;;;19.80;66.00;;;;;;5039125;28;1262;-69
2023/02/21 09:17:25;;;;;;;;;;;19.80;66.10;;;;;;5039378;28;1349;-70
2023/02/21 09:19:50;;;;;;;;;;;19.80;66.40;;;;;;5038853;28;1975;-69
2023/02/21 09:22:17;;;;;;;;;;;19.80;66.50;;;;;;5039195;28;1229;-70
2023/02/21 09:24:42;;;;;;;;;;;19.90;66.70;;;;;;5036923;28;863;-70
2023/02/21 09:27:08;;;;;;;;;;;19.90;66.80;;;;;;5072289;28;1473;-70
2023/02/21 09:29:34;;;;;;;;;;;19.90;66.70;;;;;;5041633;28;840;-70
2023/02/21 09:31:59;;;;;;;;;;;19.90;66.70;;;;;;5069581;28;1341;-70
2023/02/21 09:34:25;;;;;;;;;;;19.90;66.60;;;;;;5072313;28;931;-70
2023/02/21 09:36:50;;;;;;;;;;;19.90;66.50;;;;;;5040593;28;957;-70
2023/02/21 09:39:16;;;;;;;;;;;19.90;66.40;;;;;;5071183;28;1973;-70
2023/02/21 09:41:42;;;;;;;;;;;19.90;66.40;;;;;;5071630;28;1264;-70
2023/02/21 09:44:16;;;;;;;;;;;19.90;66.30;;;;;;5039256;28;826;-70
2023/02/21 09:46:43;;;;;;;;;;;19.90;66.40;;;;;;5072705;28;827;-70
2023/02/21 09:49:27;;;;;;;;;;;19.90;66.30;;;;;;5073546;28;864;-69
2023/02/21 09:51:53;;;;;;;;;;;19.90;66.70;;;;;;5069288;28;1313;-69
2023/02/21 09:54:23;;;;;;;;;;;19.90;66.80;;;;;;5072493;28;842;-69
2023/02/21 09:56:49;;;;;;;;;;;19.80;66.80;;;;;;5073122;28;919;-70
2023/02/21 09:59:14;;;;;;;;;;;19.80;66.80;;;;;;5039367;28;1898;-70
2023/02/21 10:01:40;;;;;;;;;;;19.80;66.70;;;;;;5072977;28;1290;-69
2023/02/21 10:04:05;;;;;;;;;;;19.80;66.80;;;;;;5041240;28;884;-70
2023/02/21 10:06:42;;;;;;;;;;;19.80;66.90;;;;;;5036338;28;900;-71
2023/02/21 10:09:23;;;;;;;;;;;19.80;66.90;;;;;;5073262;28;1339;-70
2023/02/21 10:12:02;;;;;;;;;;;19.80;66.60;;;;;;5063062;28;2179;-69
2023/02/21 10:14:46;;;;;;;;;;;19.80;66.50;;;;;;5073240;28;1918;-68
2023/02/21 10:17:15;;;;;;;;;;;19.80;66.40;;;;;;5038123;28;1489;-70
2023/02/21 10:19:42;;;;;;;;;;;19.80;66.40;;;;;;5065930;28;2073;-69
2023/02/21 10:22:37;;;;;;;;;;;19.80;66.40;;;;;;5036021;28;1260;-70
2023/02/21 10:25:21;;;;;;;;;;;19.80;66.30;;;;;;5034424;28;1451;-70
2023/02/21 10:27:47;;;;;;;;;;;19.80;66.30;;;;;;5040043;28;915;-71
2023/02/21 10:30:16;;;;;;;;;;;19.70;66.10;;;;;;5074091;28;1276;-70
2023/02/21 10:32:42;;;;;;;;;;;19.80;66.10;;;;;;5070450;28;958;-70
2023/02/21 10:35:07;;;;;;;;;;;19.70;66.00;;;;;;5040057;28;1066;-69
2023/02/21 10:37:39;;;;;;;;;;;19.80;66.00;;;;;;5041347;28;1349;-71
2023/02/21 10:40:08;;;;;;;;;;;19.80;66.00;;;;;;5071973;28;1934;-71
2023/02/21 10:42:35;;;;;;;;;;;19.70;65.80;;;;;;5037059;28;836;-69
2023/02/21 10:45:01;;;;;;;;;;;19.80;65.90;;;;;;5071235;28;916;-70
2023/02/21 10:47:41;;;;;;;;;;;19.80;65.80;;;;;;5038513;28;955;-70
2023/02/21 10:50:08;;;;;;;;;;;19.80;65.80;;;;;;5037599;28;1246;-68
2023/02/21 10:52:37;;;;;;;;;;;19.80;65.70;;;;;;5039075;28;1193;-69
2023/02/21 10:55:09;;;;;;;;;;;19.80;65.80;;;;;;5070829;28;823;-69
2023/02/21 10:57:37;;;;;;;;;;;19.80;65.80;;;;;;5068263;28;826;-70
2023/02/21 11:00:08;;;;;;;;;;;19.80;65.80;;;;;;5070235;28;1981;-70
2023/02/21 11:02:34;;;;;;;;;;;19.80;65.80;;;;;;5068646;28;906;-70
2023/02/21 11:05:07;;;;;;;;;;;19.70;65.80;;;;;;5037165;28;1241;-70
2023/02/21 11:07:32;;;;;;;;;;;19.80;65.80;;;;;;5069519;28;961;-70
2023/02/21 11:09:58;;;;;;;;;;;19.70;65.60;;;;;;5040526;28;1342;-70
2023/02/21 11:12:24;;;;;;;;;;;19.70;65.60;;;;;;5071786;28;1302;-70
2023/02/21 11:14:50;;;;;;;;;;;19.70;65.60;;;;;;5067967;28;1523;-70
2023/02/21 11:17:15;;;;;;;;;;;19.70;65.60;;;;;;5036887;28;1342;-70
2023/02/21 11:19:59;;;;;;;;;;;19.70;65.60;;;;;;5039823;28;1906;-69
2023/02/21 11:22:33;;;;;;;;;;;19.70;65.50;;;;;;5037847;28;1278;-70
2023/02/21 11:25:00;;;;;;;;;;;19.70;65.60;;;;;;5036985;28;891;-69
2023/02/21 11:27:26;;;;;;;;;;;19.70;65.60;;;;;;5069280;28;914;-70
2023/02/21 11:29:51;;;;;;;;;;;19.70;65.70;;;;;;5038718;28;982;-69
2023/02/21 11:32:22;;;;;;;;;;;19.70;65.80;;;;;;5074485;28;1350;-70
2023/02/21 11:34:48;;;;;;;;;;;19.70;65.80;;;;;;5069645;28;909;-70
2023/02/21 11:37:14;;;;;;;;;;;19.70;65.80;;;;;;5068980;28;1434;-70
2023/02/21 11:39:40;;;;;;;;;;;19.70;65.80;;;;;;5036210;28;1898;-70
2023/02/21 11:42:24;;;;;;;;;;;19.70;65.80;;;;;;5072646;28;2098;-70
2023/02/21 11:44:51;;;;;;;;;;;19.60;65.80;;;;;;5037295;28;1827;-69
2023/02/21 11:47:27;;;;;;;;;;;19.60;66.30;;;;;;5070438;28;1551;-69
2023/02/21 11:50:07;;;;;;;;;;;19.60;66.20;;;;;;5041280;28;1446;-70
2023/02/21 11:52:32;;;;;;;;;;;19.60;66.20;;;;;;5036849;28;827;-70
2023/02/21 11:54:57;;;;;;;;;;;19.60;66.10;;;;;;5036839;28;908;-69
2023/02/21 11:57:23;;;;;;;;;;;19.60;66.10;;;;;;5069401;28;895;-69
2023/02/21 12:00:00;;;;;;;;;;;19.60;66.30;;;;;;5039550;28;1965;-71
2023/02/21 12:02:44;;;;;;;;;;;19.60;66.30;;;;;;5038990;28;1515;-69
2023/02/21 12:05:10;;;;;;;;;;;19.60;66.40;;;;;;5037801;28;824;-68
2023/02/21 12:07:49;;;;;;;;;;;19.60;63.70;;;;;;5037797;28;859;-69
2023/02/21 12:10:23;;;;;;;;;;;19.50;61.60;;;;;;5070210;28;1326;-69
2023/02/21 12:12:56;;;;;;;;;;;19.40;59.00;;;;;;5067726;28;874;-68
2023/02/21 12:15:25;;;;;;;;;;;19.30;58.60;;;;;;5037947;28;1033;-69
2023/02/21 12:17:57;;;;;;;;;;;19.30;57.50;;;;;;5070860;28;1327;-69
2023/02/21 12:20:38;;;;;;;;;;;19.20;56.80;;;;;;5068900;28;1918;-70
2023/02/21 12:23:10;;;;;;;;;;;19.20;57.40;;;;;;5072584;28;995;-68
2023/02/21 12:25:41;;;;;;;;;;;19.20;57.80;;;;;;5042978;28;2092;-69
2023/02/21 12:28:20;;;;;;;;;;;19.10;58.00;;;;;;5073904;28;1411;-70
2023/02/21 12:30:54;;;;;;;;;;;19.10;58.30;;;;;;5072501;28;1358;-69
2023/02/21 12:33:24;;;;;;;;;;;19.10;58.70;;;;;;5041532;28;1434;-68
2023/02/21 12:35:53;;;;;;;;;;;19.10;59.10;;;;;;5073391;28;887;-68
2023/02/21 12:38:24;;;;;;;;;;;19.10;59.40;;;;;;5038919;28;1056;-68
2023/02/21 12:41:00;;;;;;;;;;;19.10;59.50;;;;;;5072237;28;1327;-69
2023/02/21 12:43:41;;;;;;;;;;;19.10;59.80;;;;;;5065293;28;1603;-69
2023/02/21 12:46:11;;;;;;;;;;;19.10;60.10;;;;;;5042445;28;912;-69
2023/02/21 12:48:44;;;;;;;;;;;19.10;60.20;;;;;;5073606;28;941;-69
2023/02/21 12:51:15;;;;;;;;;;;19.10;60.50;;;;;;5073358;28;1311;-69
2023/02/21 12:53:42;;;;;;;;;;;19.00;60.60;;;;;;5040021;28;844;-69
2023/02/21 12:56:11;;;;;;;;;;;19.00;60.80;;;;;;5073754;28;946;-69
2023/02/21 12:58:45;;;;;;;;;;;19.10;60.90;;;;;;5070292;28;1902;-69
2023/02/21 13:01:16;;;;;;;;;;;19.00;60.90;;;;;;5040760;28;1277;-69
2023/02/21 13:04:01;;;;;;;;;;;19.00;61.20;;;;;;5070658;28;888;-69
2023/02/21 13:06:29;;;;;;;;;;;19.00;61.30;;;;;;5036790;28;1058;-68
2023/02/21 13:09:01;;;;;;;;;;;19.00;61.40;;;;;;5040275;28;785;-69
2023/02/21 13:11:32;;;;;;;;;;;19.00;61.50;;;;;;5072339;28;1419;-69
2023/02/21 13:13:58;;;;;;;;;;;18.90;61.50;;;;;;5039734;28;947;-69
2023/02/21 13:16:23;;;;;;;;;;;18.90;61.60;;;;;;5039064;28;865;-69
2023/02/21 13:18:52;;;;;;;;;;;18.90;61.70;;;;;;5038486;28;1902;-69
2023/02/21 13:21:21;;;;;;;;;;;18.90;61.80;;;;;;5073858;28;1347;-69
2023/02/21 13:24:05;;;;;;;;;;;18.90;61.80;;;;;;5043972;28;1387;-69
2023/02/21 13:26:39;;;;;;;;;;;18.90;62.00;;;;;;5038671;28;1002;-69
2023/02/21 13:29:31;;;;;;;;;;;18.90;62.00;;;;;;5039091;28;975;-69
2023/02/21 13:32:07;;;;;;;;;;;18.90;62.00;;;;;;5036918;28;1366;-69
2023/02/21 13:34:40;;;;;;;;;;;18.90;62.10;;;;;;5070400;28;851;-69
2023/02/21 13:37:06;;;;;;;;;;;18.90;62.10;;;;;;5070566;28;1379;-68
2023/02/21 13:39:36;;;;;;;;;;;18.90;62.10;;;;;;5070704;28;1959;-68
2023/02/21 13:42:08;;;;;;;;;;;18.90;62.20;;;;;;5039724;28;1400;-68
2023/02/21 13:44:35;;;;;;;;;;;18.90;62.20;;;;;;5036741;28;847;-68
2023/02/21 13:47:02;;;;;;;;;;;18.90;62.20;;;;;;5069397;28;994;-69
2023/02/21 13:49:35;;;;;;;;;;;18.90;62.20;;;;;;5070578;28;855;-68
2023/02/21 13:52:22;;;;;;;;;;;18.90;62.30;;;;;;5070479;28;1213;-70
2023/02/21 13:55:06;;;;;;;;;;;18.90;62.30;;;;;;5042118;28;904;-69
2023/02/21 13:57:32;;;;;;;;;;;18.90;62.30;;;;;;5040586;28;995;-69
2023/02/21 13:59:58;;;;;;;;;;;18.90;62.30;;;;;;5074347;28;1894;-69
2023/02/21 14:02:29;;;;;;;;;;;18.90;62.40;;;;;;5069890;28;1844;-69
2023/02/21 14:04:55;;;;;;;;;;;18.90;62.40;;;;;;5039024;28;1928;-68
2023/02/21 14:07:50;;;;;;;;;;;18.90;62.40;;;;;;5039335;28;1023;-68
2023/02/21 14:10:25;;;;;;;;;;;18.90;62.40;;;;;;5035739;28;1363;-68
2023/02/21 14:12:53;;;;;;;;;;;18.80;62.40;;;;;;5071688;28;5685;-69
2023/02/21 14:15:18;;;;;;;;;;;18.80;62.50;;;;;;5062174;28;5699;-69
2023/02/21 14:17:44;;;;;;;;;;;18.80;62.50;;;;;;5036209;28;6162;-68
2023/02/21 14:20:14;;;;;;;;;;;18.80;62.50;;;;;;5072910;28;1914;-68
2023/02/21 14:22:39;;;;;;;;;;;18.80;62.50;;;;;;5067786;28;904;-69
2023/02/21 14:25:26;;;;;;;;;;;18.80;62.60;;;;;;5069647;28;1299;-68
2023/02/21 14:27:52;;;;;;;;;;;18.80;62.50;;;;;;5038538;28;1112;-67
2023/02/21 14:30:35;;;;;;;;;;;18.80;62.60;;;;;;5036837;28;5926;-69
2023/02/21 14:33:07;;;;;;;;;;;18.80;62.70;;;;;;5069947;28;1018;-69
2023/02/21 14:35:45;;;;;;;;;;;18.80;62.70;;;;;;5068818;28;804;-69
2023/02/21 14:38:21;;;;;;;;;;;18.80;62.70;;;;;;5069605;28;1455;-68
2023/02/21 14:40:58;;;;;;;;;;;18.80;62.70;;;;;;5064761;28;5226;-68
2023/02/21 14:43:33;;;;;;;;;;;18.80;62.80;;;;;;5068244;28;1348;-70
2023/02/21 14:45:59;;;;;;;;;;;18.70;62.70;;;;;;5043505;28;5211;-71
2023/02/21 14:48:43;;;;;;;;;;;18.70;62.80;;;;;;5037832;28;1300;-71
2023/02/21 14:51:26;;;;;;;;;;;18.80;62.80;;;;;;5038328;28;1387;-68
2023/02/21 14:54:10;;;;;;;;;;;18.80;62.90;;;;;;5036388;28;892;-67
2023/02/21 14:56:51;;;;;;;;;;;18.80;62.90;;;;;;5070412;28;1382;-67
2023/02/21 14:59:17;;;;;;;;;;;18.70;62.80;;;;;;5037910;28;5212;-67
2023/02/21 15:01:48;;;;;;;;;;;18.70;62.90;;;;;;5036709;28;1421;-68
2023/02/21 15:04:24;;;;;;;;;;;18.70;62.90;;;;;;5038324;28;1172;-68
2023/02/21 15:06:58;;;;;;;;;;;18.70;62.90;;;;;;5035732;28;942;-69
2023/02/21 15:09:24;;;;;;;;;;;18.70;62.90;;;;;;5037241;28;1260;-68
2023/02/21 15:11:50;;;;;;;;;;;18.70;62.90;;;;;;5036736;28;1377;-68
2023/02/21 15:14:25;;;;;;;;;;;18.70;62.90;;;;;;5039220;28;912;-68
2023/02/21 15:16:55;;;;;;;;;;;18.70;62.90;;;;;;5044942;28;5316;-71
2023/02/21 15:19:24;;;;;;;;;;;18.70;63.00;;;;;;5056357;28;4169;-71
2023/02/21 15:22:09;;;;;;;;;;;18.70;63.00;;;;;;5059852;28;4081;-69
2023/02/21 15:24:35;;;;;;;;;;;18.70;63.00;;;;;;5019027;28;4647;-71
2023/02/21 15:27:07;;;;;;;;;;;18.70;63.00;;;;;;5031936;28;4100;-71
2023/02/21 15:29:32;;;;;;;;;;;18.70;63.00;;;;;;5034262;28;4038;-68
2023/02/21 15:31:59;;;;;;;;;;;18.70;63.10;;;;;;5028586;28;4692;-68
2023/02/21 15:34:25;;;;;;;;;;;18.70;63.10;;;;;;5037077;28;2006;-69
2023/02/21 15:36:55;;;;;;;;;;;18.60;63.00;;;;;;5073884;28;1505;-69
2023/02/21 15:39:22;;;;;;;;;;;18.70;63.10;;;;;;5068563;28;1918;-69
2023/02/21 15:41:49;;;;;;;;;;;18.70;63.10;;;;;;5037502;28;1283;-68
2023/02/21 15:44:16;;;;;;;;;;;18.70;63.10;;;;;;5069243;28;918;-68
2023/02/21 15:46:52;;;;;;;;;;;18.60;63.10;;;;;;5069274;28;1006;-67
2023/02/21 15:49:25;;;;;;;;;;;18.60;63.00;;;;;;5067336;28;799;-69
2023/02/21 15:51:50;;;;;;;;;;;18.60;63.10;;;;;;5067061;28;1854;-70
2023/02/21 15:54:16;;;;;;;;;;;18.60;63.10;;;;;;5068557;28;815;-69
2023/02/21 15:56:41;;;;;;;;;;;18.60;63.10;;;;;;5039337;28;879;-69
2023/02/21 15:59:11;;;;;;;;;;;18.60;63.10;;;;;;5040016;28;2001;-70
2023/02/21 16:01:37;;;;;;;;;;;18.60;63.20;;;;;;5044011;28;1331;-70
2023/02/21 16:04:12;;;;;;;;;;;18.60;63.20;;;;;;5075112;28;875;-69
2023/02/21 16:06:43;;;;;;;;;;;18.60;63.20;;;;;;5038956;28;911;-68
2023/02/21 16:09:24;;;;;;;;;;;18.60;63.20;;;;;;5072920;28;867;-67
2023/02/21 16:11:51;;;;;;;;;;;18.60;63.20;;;;;;5071889;28;1257;-69
2023/02/21 16:14:43;;;;;;;;;;;18.60;63.20;;;;;;5069102;28;1439;-69
2023/02/21 16:17:11;;;;;;;;;;;18.60;63.20;;;;;;5040984;28;1036;-69
2023/02/21 16:19:37;;;;;;;;;;;18.60;63.20;;;;;;5044630;28;1906;-68
2023/02/21 16:22:11;;;;;;;;;;;18.60;63.30;;;;;;5073459;28;1420;-70
2023/02/21 16:24:38;;;;;;;;;;;18.60;63.30;;;;;;5038560;28;859;-70
2023/02/21 16:27:04;;;;;;;;;;;18.60;63.40;;;;;;5037991;28;1325;-70
2023/02/21 16:29:30;;;;;;;;;;;18.60;63.30;;;;;;5075899;28;858;-71
2023/02/21 16:31:55;;;;;;;;;;;18.60;63.30;;;;;;5042598;28;1843;-72
2023/02/21 16:34:21;;;;;;;;;;;18.60;63.30;;;;;;5075231;28;1090;-70
2023/02/21 16:36:47;;;;;;;;;;;18.60;63.30;;;;;;5075863;28;1352;-70
2023/02/21 16:39:12;;;;;;;;;;;18.60;63.30;;;;;;5040082;28;1949;-69
2023/02/21 16:41:38;;;;;;;;;;;18.60;63.30;;;;;;5041809;28;1256;-70
2023/02/21 16:44:03;;;;;;;;;;;18.60;63.30;;;;;;5042018;28;1034;-69
2023/02/21 16:46:29;;;;;;;;;;;18.60;63.30;;;;;;5040711;28;855;-70
2023/02/21 16:48:54;;;;;;;;;;;18.60;63.30;;;;;;5072832;28;883;-69
2023/02/21 16:51:20;;;;;;;;;;;18.60;63.30;;;;;;5040620;28;1267;-71
2023/02/21 16:53:46;;;;;;;;;;;18.60;63.30;;;;;;5075580;28;871;-69
2023/02/21 16:56:11;;;;;;;;;;;18.60;63.30;;;;;;5041366;28;820;-71
2023/02/21 16:58:37;;;;;;;;;;;18.60;63.30;;;;;;5072071;28;1963;-69